Time;durP1;ratioP1;P1;durP2;ratioP2;P2;SDS_P1;SDS_P2;PMS_P1;PMS_P2;Temp;Humidity;BMP_temperature;BMP_pressure;BME280_temperature;BME280_humidity;BME280_pressure;Samples;Min_cycle;Max_cycle;Signal;HPM_P1;HPM_P2
2021/11/23 00:01:57;;;;;;;5.13;4.00;;;;;;;;;;4956224;29;21003;-73
2021/11/23 00:05:01;;;;;;;7.27;4.20;;;;;;;;;;4956235;29;21168;-73
2021/11/23 00:08:05;;;;;;;6.03;3.83;;;;;;;;;;4955545;29;20536;-72
2021/11/23 00:11:09;;;;;;;5.57;4.30;;;;;;;;;;4956300;29;20634;-73
2021/11/23 00:14:13;;;;;;;6.60;4.50;;;;;;;;;;4944472;29;20880;-73
2021/11/23 00:17:19;;;;;;;6.37;3.90;;;;;;;;;;4956868;29;20602;-73
2021/11/23 00:20:23;;;;;;;6.47;3.93;;;;;;;;;;4954921;29;20619;-72
2021/11/23 00:23:28;;;;;;;4.83;3.80;;;;;;;;;;4956021;29;20595;-73
2021/11/23 00:26:32;;;;;;;5.83;3.77;;;;;;;;;;4956078;29;20556;-73
2021/11/23 00:29:36;;;;;;;6.50;4.10;;;;;;;;;;4955589;29;20547;-73
2021/11/23 00:32:40;;;;;;;5.33;3.97;;;;;;;;;;4954360;29;20662;-73
2021/11/23 00:35:45;;;;;;;4.80;3.70;;;;;;;;;;4955878;29;20559;-73
2021/11/23 00:38:49;;;;;;;5.10;4.00;;;;;;;;;;4954678;29;20979;-72
2021/11/23 00:41:53;;;;;;;5.73;4.10;;;;;;;;;;4955451;29;20663;-73
2021/11/23 00:44:57;;;;;;;6.70;4.37;;;;;;;;;;4954915;29;20598;-73
2021/11/23 00:48:02;;;;;;;7.10;3.93;;;;;;;;;;4954460;29;20591;-72
2021/11/23 00:51:07;;;;;;;5.60;3.97;;;;;;;;;;4955367;29;20634;-73
2021/11/23 00:54:11;;;;;;;6.87;4.63;;;;;;;;;;4955077;29;20631;-72
2021/11/23 00:57:16;;;;;;;6.60;4.20;;;;;;;;;;4955436;29;20560;-73
2021/11/23 01:00:20;;;;;;;6.60;4.03;;;;;;;;;;4954822;29;20531;-73
2021/11/23 01:03:25;;;;;;;5.00;3.90;;;;;;;;;;4936377;29;20611;-73
2021/11/23 01:06:29;;;;;;;5.00;3.93;;;;;;;;;;4935544;29;20548;-73
2021/11/23 01:09:33;;;;;;;6.07;3.97;;;;;;;;;;4952201;29;20591;-72
2021/11/23 01:12:37;;;;;;;7.00;4.20;;;;;;;;;;4943176;29;20618;-73
2021/11/23 01:15:41;;;;;;;5.43;4.03;;;;;;;;;;4954315;29;20590;-73
2021/11/23 01:18:46;;;;;;;5.30;3.97;;;;;;;;;;4954492;29;20625;-73
2021/11/23 01:21:50;;;;;;;5.63;3.77;;;;;;;;;;4953746;29;20650;-72
2021/11/23 01:24:54;;;;;;;7.53;4.00;;;;;;;;;;4954102;29;20591;-73
2021/11/23 01:28:00;;;;;;;7.40;3.93;;;;;;;;;;4954434;29;20690;-73
2021/11/23 01:31:04;;;;;;;7.10;4.20;;;;;;;;;;4954251;29;20642;-73
2021/11/23 01:34:08;;;;;;;5.87;4.40;;;;;;;;;;4954926;29;20602;-73
2021/11/23 01:37:13;;;;;;;7.73;4.00;;;;;;;;;;4943372;29;20539;-73
2021/11/23 01:40:17;;;;;;;6.00;4.03;;;;;;;;;;4943284;29;20931;-73
2021/11/23 01:43:21;;;;;;;5.50;4.30;;;;;;;;;;4945003;29;20595;-72
2021/11/23 01:46:26;;;;;;;5.13;3.67;;;;;;;;;;4959080;29;20543;-73
2021/11/23 01:49:30;;;;;;;5.70;3.93;;;;;;;;;;4928094;29;20528;-73
2021/11/23 01:52:34;;;;;;;6.07;4.37;;;;;;;;;;4939472;29;20623;-73
2021/11/23 01:55:42;;;;;;;5.07;4.20;;;;;;;;;;4941560;29;20619;-72
2021/11/23 01:58:46;;;;;;;5.40;3.87;;;;;;;;;;4958140;29;20642;-73
2021/11/23 02:01:51;;;;;;;6.37;3.70;;;;;;;;;;4958740;29;20966;-73
2021/11/23 02:04:55;;;;;;;5.07;4.17;;;;;;;;;;4958008;29;20555;-73
2021/11/23 02:07:59;;;;;;;6.87;4.30;;;;;;;;;;4933340;29;20599;-73
2021/11/23 02:11:03;;;;;;;5.37;3.87;;;;;;;;;;4946487;29;20646;-73
2021/11/23 02:14:07;;;;;;;4.53;3.23;;;;;;;;;;4957325;29;20594;-72
2021/11/23 02:17:11;;;;;;;7.27;4.53;;;;;;;;;;4954437;29;20595;-72
2021/11/23 02:20:18;;;;;;;6.80;4.27;;;;;;;;;;4958103;29;20607;-72
2021/11/23 02:23:23;;;;;;;6.10;4.20;;;;;;;;;;4938987;29;20599;-73
2021/11/23 02:26:29;;;;;;;6.80;4.70;;;;;;;;;;4956960;29;21156;-73
2021/11/23 02:29:33;;;;;;;5.33;4.03;;;;;;;;;;4946815;29;20539;-73
2021/11/23 02:32:41;;;;;;;5.27;4.13;;;;;;;;;;4958105;29;20638;-73
2021/11/23 02:35:48;;;;;;;5.37;4.10;;;;;;;;;;4945500;29;20928;-72
2021/11/23 02:38:52;;;;;;;5.80;3.93;;;;;;;;;;4957521;29;20722;-72
2021/11/23 02:41:56;;;;;;;5.30;3.83;;;;;;;;;;4946135;29;20626;-73
2021/11/23 02:45:00;;;;;;;5.13;3.60;;;;;;;;;;4958096;29;20543;-73
2021/11/23 02:48:08;;;;;;;6.37;4.47;;;;;;;;;;4956809;29;20599;-72
2021/11/23 02:51:16;;;;;;;7.73;4.90;;;;;;;;;;4958177;29;20623;-73
2021/11/23 02:54:20;;;;;;;6.43;4.50;;;;;;;;;;4938958;29;20544;-73
2021/11/23 02:57:29;;;;;;;5.57;4.13;;;;;;;;;;4954296;29;20598;-72
2021/11/23 03:00:34;;;;;;;6.97;4.73;;;;;;;;;;4950201;29;20666;-72
2021/11/23 03:03:38;;;;;;;5.33;4.30;;;;;;;;;;4956861;29;20559;-73
2021/11/23 03:06:43;;;;;;;5.37;4.23;;;;;;;;;;4939005;29;20607;-73
2021/11/23 03:09:47;;;;;;;6.87;4.37;;;;;;;;;;4956353;29;20630;-73
2021/11/23 03:12:52;;;;;;;6.67;4.57;;;;;;;;;;4956365;29;21030;-73
2021/11/23 03:15:56;;;;;;;7.07;4.20;;;;;;;;;;4957418;29;20594;-72
2021/11/23 03:19:00;;;;;;;5.77;4.03;;;;;;;;;;4945507;29;20630;-72
2021/11/23 03:22:04;;;;;;;6.73;4.20;;;;;;;;;;4957050;29;20627;-73
2021/11/23 03:25:10;;;;;;;9.43;6.27;;;;;;;;;;4957618;29;20544;-73
2021/11/23 03:28:14;;;;;;;7.40;5.10;;;;;;;;;;4956934;29;20595;-72
2021/11/23 03:31:18;;;;;;;6.30;4.97;;;;;;;;;;4957179;29;20627;-73
2021/11/23 03:34:23;;;;;;;8.20;4.97;;;;;;;;;;4955871;29;20591;-72
2021/11/23 03:37:27;;;;;;;6.87;4.43;;;;;;;;;;4944645;29;20936;-72
2021/11/23 03:40:33;;;;;;;6.90;4.30;;;;;;;;;;4956340;29;21126;-73
2021/11/23 03:43:38;;;;;;;6.00;4.40;;;;;;;;;;4957316;29;20544;-73
2021/11/23 03:46:42;;;;;;;8.43;4.77;;;;;;;;;;4955230;29;20595;-72
2021/11/23 03:49:46;;;;;;;6.10;4.90;;;;;;;;;;4944436;29;20590;-72
2021/11/23 03:52:50;;;;;;;6.53;4.43;;;;;;;;;;4955940;29;21189;-73
2021/11/23 03:55:54;;;;;;;8.07;5.17;;;;;;;;;;4956295;29;21168;-72
2021/11/23 03:58:59;;;;;;;6.40;4.77;;;;;;;;;;4956868;29;20646;-73
2021/11/23 04:02:03;;;;;;;7.20;4.40;;;;;;;;;;4937527;29;20624;-73
2021/11/23 04:05:08;;;;;;;6.37;4.47;;;;;;;;;;4949522;28;20599;-73
2021/11/23 04:08:12;;;;;;;6.83;4.80;;;;;;;;;;4956054;29;20551;-73
2021/11/23 04:11:16;;;;;;;6.73;4.10;;;;;;;;;;4955718;29;20626;-73
2021/11/23 04:14:21;;;;;;;4.90;3.50;;;;;;;;;;4956074;29;20595;-72
2021/11/23 04:17:25;;;;;;;4.87;3.73;;;;;;;;;;4955310;29;20595;-73
2021/11/23 04:20:29;;;;;;;4.87;3.87;;;;;;;;;;4955666;29;21228;-73
2021/11/23 04:23:33;;;;;;;5.87;3.90;;;;;;;;;;4956075;29;20536;-73
2021/11/23 04:26:37;;;;;;;5.80;3.67;;;;;;;;;;4956339;29;20563;-73
2021/11/23 04:29:41;;;;;;;5.40;3.90;;;;;;;;;;4942806;29;20587;-73
2021/11/23 04:32:45;;;;;;;6.53;4.30;;;;;;;;;;4961112;23;20690;-74
2021/11/23 04:35:49;;;;;;;6.40;4.07;;;;;;;;;;4960146;28;20586;-74
2021/11/23 04:38:53;;;;;;;6.30;3.80;;;;;;;;;;4974656;28;20582;-74
2021/11/23 04:41:58;;;;;;;5.57;4.10;;;;;;;;;;4962977;28;20658;-74
2021/11/23 04:45:07;;;;;;;8.33;4.07;;;;;;;;;;4956254;29;21086;-74
2021/11/23 04:48:12;;;;;;;9.87;4.07;;;;;;;;;;4955643;29;20547;-74
2021/11/23 04:51:16;;;;;;;5.90;4.33;;;;;;;;;;4954555;29;20634;-73
2021/11/23 04:54:20;;;;;;;6.13;3.73;;;;;;;;;;4955593;29;21180;-74
2021/11/23 04:57:24;;;;;;;8.80;4.40;;;;;;;;;;4936467;29;20549;-72
2021/11/23 05:00:28;;;;;;;5.63;4.07;;;;;;;;;;4936904;29;20592;-72
2021/11/23 05:03:32;;;;;;;5.70;3.90;;;;;;;;;;4935939;29;20536;-72
2021/11/23 05:06:37;;;;;;;7.43;3.50;;;;;;;;;;4935335;29;20560;-72
2021/11/23 05:09:40;;;;;;;5.63;3.73;;;;;;;;;;4952770;29;20587;-72
2021/11/23 05:12:45;;;;;;;5.77;3.87;;;;;;;;;;4954356;29;20982;-72
2021/11/23 05:15:49;;;;;;;6.00;3.63;;;;;;;;;;4955468;29;20540;-72
2021/11/23 05:18:53;;;;;;;5.03;3.63;;;;;;;;;;4954078;29;20602;-72
2021/11/23 05:21:57;;;;;;;6.23;4.00;;;;;;;;;;4954355;29;20951;-73
2021/11/23 05:25:01;;;;;;;6.90;4.50;;;;;;;;;;4954077;29;20599;-72
2021/11/23 05:28:05;;;;;;;7.33;4.50;;;;;;;;;;4954845;29;20630;-72
2021/11/23 05:31:10;;;;;;;5.87;4.03;;;;;;;;;;4955247;29;20627;-72
2021/11/23 05:34:14;;;;;;;7.27;4.20;;;;;;;;;;4954698;29;20627;-72
2021/11/23 05:37:18;;;;;;;4.87;3.83;;;;;;;;;;4954550;29;20986;-72
2021/11/23 05:40:22;;;;;;;5.43;3.90;;;;;;;;;;4950006;29;20651;-72
2021/11/23 05:43:26;;;;;;;8.10;3.90;;;;;;;;;;4942393;29;20619;-72
2021/11/23 05:46:30;;;;;;;5.53;3.90;;;;;;;;;;4935623;29;20612;-72
2021/11/23 05:49:35;;;;;;;6.77;4.20;;;;;;;;;;4940858;29;20591;-72
2021/11/23 05:52:39;;;;;;;7.83;4.00;;;;;;;;;;4942878;29;20619;-72
2021/11/23 05:55:43;;;;;;;5.63;3.90;;;;;;;;;;4954801;29;20895;-72
2021/11/23 05:58:47;;;;;;;9.07;6.37;;;;;;;;;;4954655;29;20603;-72
2021/11/23 06:01:51;;;;;;;10.30;5.67;;;;;;;;;;4954380;29;21240;-72
2021/11/23 06:04:56;;;;;;;9.53;4.67;;;;;;;;;;4953875;29;20610;-74
2021/11/23 06:07:59;;;;;;;8.50;4.30;;;;;;;;;;4953581;29;20623;-74
2021/11/23 06:11:03;;;;;;;4.70;3.70;;;;;;;;;;4954611;29;20630;-74
2021/11/23 06:14:08;;;;;;;5.70;4.20;;;;;;;;;;4954668;29;20547;-74
2021/11/23 06:17:12;;;;;;;5.20;4.20;;;;;;;;;;4953948;29;20599;-74
2021/11/23 06:20:17;;;;;;;6.90;4.27;;;;;;;;;;4947561;29;20627;-73
2021/11/23 06:23:22;;;;;;;7.50;5.13;;;;;;;;;;4953991;29;20560;-72
2021/11/23 06:26:27;;;;;;;8.67;5.60;;;;;;;;;;4948779;29;20591;-72
2021/11/23 06:29:31;;;;;;;10.60;6.70;;;;;;;;;;4955821;28;20547;-72
2021/11/23 06:32:35;;;;;;;11.90;7.20;;;;;;;;;;4956901;29;20657;-72
2021/11/23 06:35:40;;;;;;;13.77;8.63;;;;;;;;;;4958196;29;20570;-72
2021/11/23 06:38:45;;;;;;;8.53;5.47;;;;;;;;;;4958335;29;20606;-72
2021/11/23 06:41:49;;;;;;;6.30;4.47;;;;;;;;;;4938775;29;20999;-72
2021/11/23 06:44:53;;;;;;;11.00;5.70;;;;;;;;;;4946275;29;21180;-72
2021/11/23 06:47:58;;;;;;;26.47;11.63;;;;;;;;;;4957470;29;20605;-72
2021/11/23 06:51:02;;;;;;;57.90;22.10;;;;;;;;;;4957612;29;20626;-72
2021/11/23 06:54:06;;;;;;;50.53;20.40;;;;;;;;;;4956835;29;20558;-73
2021/11/23 06:57:10;;;;;;;29.80;14.50;;;;;;;;;;4957495;29;20625;-73
2021/11/23 07:00:14;;;;;;;44.07;19.73;;;;;;;;;;4957291;29;20653;-72
2021/11/23 07:03:18;;;;;;;32.43;16.43;;;;;;;;;;4957251;29;21160;-72
2021/11/23 07:06:23;;;;;;;28.80;12.77;;;;;;;;;;4957333;29;20614;-72
2021/11/23 07:09:27;;;;;;;24.93;13.27;;;;;;;;;;4957240;29;21180;-72
2021/11/23 07:12:31;;;;;;;18.23;10.83;;;;;;;;;;4942180;29;20649;-72
2021/11/23 07:15:36;;;;;;;17.63;10.63;;;;;;;;;;4937710;29;20555;-72
2021/11/23 07:18:40;;;;;;;12.23;8.17;;;;;;;;;;4943780;29;20598;-72
2021/11/23 07:21:44;;;;;;;12.30;7.47;;;;;;;;;;4955897;29;20677;-72
2021/11/23 07:24:48;;;;;;;11.73;7.40;;;;;;;;;;4949231;29;20597;-72
2021/11/23 07:27:53;;;;;;;13.33;7.80;;;;;;;;;;4956410;29;20644;-72
2021/11/23 07:30:57;;;;;;;13.80;8.70;;;;;;;;;;4957338;29;20630;-72
2021/11/23 07:34:01;;;;;;;19.63;8.20;;;;;;;;;;4945152;29;21027;-72
2021/11/23 07:37:06;;;;;;;18.93;8.73;;;;;;;;;;4956129;29;20606;-72
2021/11/23 07:40:11;;;;;;;17.43;10.03;;;;;;;;;;4955720;28;20634;-72
2021/11/23 07:43:15;;;;;;;16.80;10.37;;;;;;;;;;4953333;29;20586;-72
2021/11/23 07:46:19;;;;;;;15.97;9.77;;;;;;;;;;4950686;29;21160;-73
2021/11/23 07:49:24;;;;;;;11.90;7.57;;;;;;;;;;4948965;29;20584;-72
2021/11/23 07:52:28;;;;;;;13.70;8.17;;;;;;;;;;4937068;29;20646;-72
2021/11/23 07:55:34;;;;;;;16.13;8.73;;;;;;;;;;4937744;29;20998;-72
2021/11/23 07:58:38;;;;;;;12.70;7.93;;;;;;;;;;4934364;29;20576;-72
2021/11/23 08:01:43;;;;;;;16.87;8.80;;;;;;;;;;4938873;29;20678;-72
2021/11/23 08:04:47;;;;;;;16.07;9.83;;;;;;;;;;4952351;29;20574;-72
2021/11/23 08:07:51;;;;;;;14.87;9.53;;;;;;;;;;4952153;29;20579;-72
2021/11/23 08:10:58;;;;;;;13.33;8.73;;;;;;;;;;4952993;29;20962;-72
2021/11/23 08:14:02;;;;;;;15.57;9.00;;;;;;;;;;4951815;29;20575;-72
2021/11/23 08:17:06;;;;;;;16.10;10.07;;;;;;;;;;4952905;29;20566;-72
2021/11/23 08:20:11;;;;;;;16.83;10.73;;;;;;;;;;4952801;29;20997;-72
2021/11/23 08:23:15;;;;;;;20.27;11.77;;;;;;;;;;4952756;29;20587;-72
2021/11/23 08:26:19;;;;;;;18.87;11.83;;;;;;;;;;4952425;29;20939;-72
2021/11/23 08:29:23;;;;;;;16.40;10.70;;;;;;;;;;4951710;29;20938;-72
2021/11/23 08:32:27;;;;;;;13.53;9.20;;;;;;;;;;4952342;29;21219;-72
2021/11/23 08:35:32;;;;;;;18.10;10.30;;;;;;;;;;4951761;29;20563;-72
2021/11/23 08:38:37;;;;;;;14.00;9.87;;;;;;;;;;4942929;29;20959;-72
2021/11/23 08:41:43;;;;;;;14.63;9.53;;;;;;;;;;4933093;29;21237;-72
2021/11/23 08:44:48;;;;;;;12.30;9.10;;;;;;;;;;4933354;29;20563;-72
2021/11/23 08:47:52;;;;;;;10.50;7.10;;;;;;;;;;4933198;29;20684;-73
2021/11/23 08:50:56;;;;;;;12.00;7.47;;;;;;;;;;4956969;28;20654;-72
2021/11/23 08:54:02;;;;;;;22.70;13.20;;;;;;;;;;4971382;28;20559;-72
2021/11/23 08:57:08;;;;;;;7.80;5.40;;;;;;;;;;4971618;28;20574;-73
2021/11/23 09:00:20;;;;;;;9.23;6.13;;;;;;;;;;4970481;28;20563;-72
2021/11/23 09:03:25;;;;;;;8.10;6.13;;;;;;;;;;4955714;28;20591;-73
2021/11/23 09:06:33;;;;;;;8.70;5.77;;;;;;;;;;4932337;29;20565;-72
2021/11/23 09:09:42;;;;;;;10.27;6.40;;;;;;;;;;4932180;29;20568;-72
2021/11/23 09:12:48;;;;;;;8.20;4.97;;;;;;;;;;4931994;29;20636;-72
2021/11/23 09:15:52;;;;;;;8.17;5.03;;;;;;;;;;4931797;29;20580;-72
2021/11/23 09:18:56;;;;;;;7.77;6.23;;;;;;;;;;4932108;29;20568;-72
2021/11/23 09:22:02;;;;;;;6.90;5.43;;;;;;;;;;4950660;28;20655;-72
2021/11/23 09:25:08;;;;;;;7.70;5.13;;;;;;;;;;4951551;29;20559;-73
2021/11/23 09:28:12;;;;;;;7.00;5.27;;;;;;;;;;4950884;29;20603;-72
2021/11/23 09:31:17;;;;;;;7.57;5.27;;;;;;;;;;4951476;28;20622;-73
2021/11/23 09:34:22;;;;;;;8.37;5.63;;;;;;;;;;4951498;29;21167;-73
2021/11/23 09:37:27;;;;;;;6.83;5.23;;;;;;;;;;4951069;29;20567;-73
2021/11/23 09:40:32;;;;;;;6.20;4.67;;;;;;;;;;4951727;28;20889;-73
2021/11/23 09:43:38;;;;;;;5.57;4.93;;;;;;;;;;4951623;29;20567;-73
2021/11/23 09:46:42;;;;;;;8.73;5.37;;;;;;;;;;4951516;29;20571;-72
2021/11/23 09:49:47;;;;;;;8.27;5.57;;;;;;;;;;4951201;29;20563;-72
2021/11/23 09:52:51;;;;;;;6.93;5.23;;;;;;;;;;4951406;28;20631;-72
2021/11/23 09:55:55;;;;;;;11.03;5.90;;;;;;;;;;4950651;29;20907;-71
2021/11/23 09:58:59;;;;;;;6.20;5.10;;;;;;;;;;4951565;29;20602;-72
2021/11/23 10:02:04;;;;;;;8.00;5.13;;;;;;;;;;4951209;28;20650;-72
2021/11/23 10:05:15;;;;;;;7.57;5.50;;;;;;;;;;4953580;29;20600;-73
2021/11/23 10:08:19;;;;;;;8.23;6.17;;;;;;;;;;4954416;29;20567;-72
2021/11/23 10:11:26;;;;;;;6.30;5.07;;;;;;;;;;4954573;29;21316;-72
2021/11/23 10:14:34;;;;;;;6.37;4.70;;;;;;;;;;4939272;29;20192;-73
2021/11/23 10:17:42;;;;;;;5.33;4.80;;;;;;;;;;4953903;29;20591;-72
2021/11/23 10:20:52;;;;;;;6.90;5.63;;;;;;;;;;4953586;28;20195;-73
2021/11/23 10:23:57;;;;;;;6.30;4.63;;;;;;;;;;4947964;29;20195;-72
2021/11/23 10:27:16;;;;;;;8.73;5.30;;;;;;;;;;4948765;29;20603;-73
2021/11/23 10:30:21;;;;;;;5.27;4.73;;;;;;;;;;4935740;29;20536;-72
2021/11/23 10:33:26;;;;;;;6.63;4.87;;;;;;;;;;4935598;29;20208;-72
2021/11/23 10:36:33;;;;;;;5.50;4.67;;;;;;;;;;4934873;29;20188;-72
2021/11/23 10:39:37;;;;;;;6.30;4.60;;;;;;;;;;4934655;29;20184;-72
2021/11/23 10:42:44;;;;;;;5.80;4.90;;;;;;;;;;4945169;29;20227;-72
2021/11/23 10:45:52;;;;;;;18.53;10.43;;;;;;;;;;4954782;29;20183;-72
2021/11/23 10:49:00;;;;;;;8.53;5.57;;;;;;;;;;4949563;28;20245;-72
2021/11/23 10:52:05;;;;;;;7.80;5.30;;;;;;;;;;4935649;29;20224;-72
2021/11/23 10:55:29;;;;;;;6.70;5.23;;;;;;;;;;4954267;29;20199;-72
2021/11/23 10:58:33;;;;;;;5.53;4.50;;;;;;;;;;4945657;29;20181;-72
2021/11/23 11:01:38;;;;;;;5.53;3.93;;;;;;;;;;4974892;23;20242;-73
2021/11/23 11:04:44;;;;;;;4.87;4.37;;;;;;;;;;4964842;28;20179;-73
2021/11/23 11:07:49;;;;;;;6.57;4.70;;;;;;;;;;4975287;28;20183;-73
2021/11/23 11:10:54;;;;;;;9.90;5.00;;;;;;;;;;4975763;28;20693;-73
2021/11/23 11:13:58;;;;;;;7.47;4.80;;;;;;;;;;4974921;28;20195;-72
2021/11/23 11:17:07;;;;;;;6.10;4.40;;;;;;;;;;4976729;28;20187;-73
2021/11/23 11:20:12;;;;;;;15.20;11.33;;;;;;;;;;4954082;29;20196;-73
2021/11/23 11:23:21;;;;;;;6.43;5.17;;;;;;;;;;4970432;28;20202;-73
2021/11/23 11:26:40;;;;;;;6.57;4.83;;;;;;;;;;4976407;28;20523;-73
2021/11/23 11:29:44;;;;;;;6.57;4.93;;;;;;;;;;4975275;28;20558;-73
2021/11/23 11:32:49;;;;;;;7.00;5.03;;;;;;;;;;4976340;28;20215;-73
2021/11/23 11:35:55;;;;;;;5.13;4.63;;;;;;;;;;4974744;28;20195;-73
2021/11/23 11:38:59;;;;;;;6.70;5.20;;;;;;;;;;4975415;28;20528;-74
2021/11/23 11:42:04;;;;;;;6.77;5.17;;;;;;;;;;4956153;28;20227;-74
2021/11/23 11:45:11;;;;;;;6.20;4.93;;;;;;;;;;4956752;29;20647;-74
2021/11/23 11:48:30;;;;;;;6.23;4.37;;;;;;;;;;4955308;29;20183;-73
2021/11/23 11:51:41;;;;;;;8.80;4.97;;;;;;;;;;4931149;28;20757;-74
2021/11/23 11:55:18;;;;;;;5.27;4.73;;;;;;;;;;4968025;28;20198;-74
2021/11/23 11:58:48;;;;;;;6.33;4.80;;;;;;;;;;4972011;28;20586;-74
2021/11/23 12:02:22;;;;;;;5.60;4.33;;;;;;;;;;4946699;28;20235;-74
2021/11/23 12:05:48;;;;;;;7.17;4.40;;;;;;;;;;4952929;29;20544;-74
2021/11/23 12:08:56;;;;;;;4.87;4.30;;;;;;;;;;4963129;28;20200;-74
2021/11/23 12:12:09;;;;;;;11.13;5.13;;;;;;;;;;4952267;28;20215;-74
2021/11/23 12:15:18;;;;;;;6.17;4.57;;;;;;;;;;4953362;28;20187;-74
2021/11/23 12:18:42;;;;;;;5.30;4.33;;;;;;;;;;4963143;28;20199;-74
2021/11/23 12:21:53;;;;;;;5.50;4.23;;;;;;;;;;4951885;29;20571;-74
2021/11/23 12:25:03;;;;;;;5.27;4.30;;;;;;;;;;4952613;29;20540;-74
2021/11/23 12:28:08;;;;;;;5.70;4.13;;;;;;;;;;4951413;29;20832;-74
2021/11/23 12:31:12;;;;;;;4.97;4.00;;;;;;;;;;4929786;28;20219;-74
2021/11/23 12:34:17;;;;;;;5.10;4.60;;;;;;;;;;4952658;29;20183;-74
2021/11/23 12:37:35;;;;;;;6.43;4.87;;;;;;;;;;4949391;28;20187;-75
2021/11/23 12:40:38;;;;;;;5.60;4.80;;;;;;;;;;4970844;28;20179;-74
2021/11/23 12:43:44;;;;;;;5.10;4.03;;;;;;;;;;4963680;28;20199;-74
2021/11/23 12:46:59;;;;;;;5.27;4.40;;;;;;;;;;4953399;28;20204;-74
2021/11/23 12:50:04;;;;;;;7.93;4.53;;;;;;;;;;4952251;29;20192;-74
2021/11/23 12:53:15;;;;;;;5.73;4.53;;;;;;;;;;4960889;28;20180;-74
2021/11/23 12:56:19;;;;;;;5.30;4.50;;;;;;;;;;4964151;28;20194;-74
2021/11/23 12:59:53;;;;;;;5.93;4.63;;;;;;;;;;4971639;28;20178;-75
2021/11/23 13:02:57;;;;;;;5.60;4.70;;;;;;;;;;4971421;28;20669;-75
2021/11/23 13:06:09;;;;;;;6.30;4.90;;;;;;;;;;4952158;28;20206;-76
2021/11/23 13:09:13;;;;;;;5.60;4.73;;;;;;;;;;4952366;29;20191;-76
2021/11/23 13:12:20;;;;;;;5.57;4.70;;;;;;;;;;4952174;28;20215;-75
2021/11/23 13:15:30;;;;;;;5.27;4.17;;;;;;;;;;4953805;28;20199;-75
2021/11/23 13:18:34;;;;;;;6.53;4.00;;;;;;;;;;4971213;28;20195;-75
2021/11/23 13:21:38;;;;;;;5.30;4.43;;;;;;;;;;4969734;28;20570;-75
2021/11/23 13:24:42;;;;;;;8.17;4.67;;;;;;;;;;4960948;28;20215;-75
2021/11/23 13:27:46;;;;;;;5.63;4.67;;;;;;;;;;4963047;28;20613;-73
2021/11/23 13:30:56;;;;;;;6.03;4.50;;;;;;;;;;4958869;28;20230;-74
2021/11/23 13:34:06;;;;;;;7.37;4.83;;;;;;;;;;4951558;28;21635;-75
2021/11/23 13:37:10;;;;;;;6.90;5.77;;;;;;;;;;4963336;28;20207;-75
2021/11/23 13:40:26;;;;;;;5.13;4.07;;;;;;;;;;4967141;28;20199;-75
2021/11/23 13:43:57;;;;;;;5.07;4.00;;;;;;;;;;4954540;28;20562;-75
2021/11/23 13:47:04;;;;;;;6.13;4.70;;;;;;;;;;4959887;29;20188;-74
2021/11/23 13:50:12;;;;;;;9.00;5.60;;;;;;;;;;4960345;28;20179;-75
2021/11/23 13:53:16;;;;;;;7.40;5.87;;;;;;;;;;4954114;29;20203;-74
2021/11/23 13:56:23;;;;;;;10.27;5.67;;;;;;;;;;4973432;28;20195;-74
2021/11/23 13:59:28;;;;;;;5.93;4.70;;;;;;;;;;4961617;28;20538;-75
2021/11/23 14:02:50;;;;;;;7.73;4.80;;;;;;;;;;4966874;28;20227;-75
2021/11/23 14:06:02;;;;;;;6.20;5.03;;;;;;;;;;4970805;28;20658;-75
2021/11/23 14:09:06;;;;;;;5.63;4.50;;;;;;;;;;4955105;28;20192;-74
2021/11/23 14:12:21;;;;;;;6.50;4.50;;;;;;;;;;4959054;28;20734;-74
2021/11/23 14:15:25;;;;;;;6.87;5.23;;;;;;;;;;4954255;29;20192;-73
2021/11/23 14:18:32;;;;;;;6.50;4.73;;;;;;;;;;4954169;29;20184;-73
2021/11/23 14:21:36;;;;;;;5.97;4.70;;;;;;;;;;4953777;29;20215;-73
2021/11/23 14:24:40;;;;;;;7.00;4.77;;;;;;;;;;4954928;29;20179;-73
2021/11/23 14:27:53;;;;;;;4.60;4.03;;;;;;;;;;4954568;29;20526;-73
2021/11/23 14:30:57;;;;;;;5.27;4.70;;;;;;;;;;4953626;29;20215;-74
2021/11/23 14:34:05;;;;;;;6.20;4.57;;;;;;;;;;4951552;29;20191;-73
2021/11/23 14:37:09;;;;;;;5.60;4.60;;;;;;;;;;4951211;29;20192;-74
2021/11/23 14:40:14;;;;;;;6.77;5.00;;;;;;;;;;4951116;29;20184;-73
2021/11/23 14:43:19;;;;;;;5.63;4.73;;;;;;;;;;4950979;29;20207;-73
2021/11/23 14:46:24;;;;;;;6.17;4.23;;;;;;;;;;4949937;29;20187;-73
2021/11/23 14:49:28;;;;;;;5.90;4.60;;;;;;;;;;4950371;28;20195;-73
2021/11/23 14:52:33;;;;;;;6.07;4.80;;;;;;;;;;4953572;29;20326;-73
2021/11/23 14:55:39;;;;;;;4.77;4.00;;;;;;;;;;4954387;29;20184;-73
2021/11/23 14:58:44;;;;;;;5.00;3.90;;;;;;;;;;4953066;29;20179;-73
2021/11/23 15:01:48;;;;;;;7.43;4.80;;;;;;;;;;4953252;29;20626;-74
2021/11/23 15:04:53;;;;;;;24.70;13.43;;;;;;;;;;4954196;29;20171;-73
2021/11/23 15:07:57;;;;;;;21.50;13.00;;;;;;;;;;4953434;29;20198;-73
2021/11/23 15:11:02;;;;;;;21.97;14.80;;;;;;;;;;4953610;29;20226;-73
2021/11/23 15:14:06;;;;;;;15.70;9.70;;;;;;;;;;4954135;29;20214;-73
2021/11/23 15:17:10;;;;;;;13.40;8.77;;;;;;;;;;4953429;29;20770;-74
2021/11/23 15:20:16;;;;;;;13.57;7.63;;;;;;;;;;4953107;29;20188;-74
2021/11/23 15:23:22;;;;;;;7.30;6.10;;;;;;;;;;4952767;29;20219;-74
2021/11/23 15:26:26;;;;;;;8.03;5.57;;;;;;;;;;4953898;29;20875;-73
2021/11/23 15:29:31;;;;;;;8.73;5.27;;;;;;;;;;4953820;29;21106;-74
2021/11/23 15:32:35;;;;;;;6.97;4.90;;;;;;;;;;4955432;28;20645;-74
2021/11/23 15:35:40;;;;;;;6.50;4.73;;;;;;;;;;4960713;28;20606;-75
2021/11/23 15:38:44;;;;;;;5.37;4.13;;;;;;;;;;4960492;28;20590;-75
2021/11/23 15:41:49;;;;;;;6.33;4.17;;;;;;;;;;4961097;28;20622;-74
2021/11/23 15:44:53;;;;;;;9.07;4.30;;;;;;;;;;4968979;28;20574;-75
2021/11/23 15:47:58;;;;;;;6.20;4.30;;;;;;;;;;4976616;28;20582;-75
2021/11/23 15:51:06;;;;;;;5.73;4.07;;;;;;;;;;4965314;28;20642;-74
2021/11/23 15:54:10;;;;;;;7.43;4.97;;;;;;;;;;4972299;28;20594;-75
2021/11/23 15:57:14;;;;;;;6.20;4.37;;;;;;;;;;4971437;28;20558;-74
2021/11/23 16:00:18;;;;;;;5.87;4.33;;;;;;;;;;4972528;28;20605;-75
2021/11/23 16:03:23;;;;;;;8.33;4.50;;;;;;;;;;4972294;28;21227;-75
2021/11/23 16:06:31;;;;;;;6.73;4.60;;;;;;;;;;4972401;28;20578;-75
2021/11/23 16:09:35;;;;;;;5.60;4.37;;;;;;;;;;4959763;28;20599;-75
2021/11/23 16:12:39;;;;;;;7.00;4.90;;;;;;;;;;4952409;29;20627;-74
2021/11/23 16:15:44;;;;;;;12.43;7.73;;;;;;;;;;4967890;28;21154;-74
2021/11/23 16:18:50;;;;;;;12.00;7.10;;;;;;;;;;4952078;29;20607;-74
2021/11/23 16:21:54;;;;;;;10.80;6.33;;;;;;;;;;4951785;28;20666;-74
2021/11/23 16:24:58;;;;;;;7.13;4.37;;;;;;;;;;4961537;28;20590;-74
2021/11/23 16:28:02;;;;;;;6.97;4.50;;;;;;;;;;4971917;28;20566;-75
2021/11/23 16:31:06;;;;;;;5.23;4.07;;;;;;;;;;4955903;28;20662;-75
2021/11/23 16:34:11;;;;;;;6.80;4.33;;;;;;;;;;4958228;28;20582;-74
2021/11/23 16:37:20;;;;;;;9.67;4.77;;;;;;;;;;4958624;28;20626;-75
2021/11/23 16:40:24;;;;;;;7.93;4.50;;;;;;;;;;4950997;29;20579;-73
2021/11/23 16:43:28;;;;;;;7.27;5.27;;;;;;;;;;4961216;28;20633;-74
2021/11/23 16:46:33;;;;;;;7.57;4.73;;;;;;;;;;4957153;28;20598;-74
2021/11/23 16:49:37;;;;;;;8.37;5.60;;;;;;;;;;4957806;28;20598;-74
2021/11/23 16:52:42;;;;;;;7.87;5.77;;;;;;;;;;4967144;28;20642;-74
2021/11/23 16:55:47;;;;;;;9.53;6.03;;;;;;;;;;4952744;28;20571;-74
2021/11/23 16:58:51;;;;;;;9.87;5.80;;;;;;;;;;4948001;28;20582;-74
2021/11/23 17:01:55;;;;;;;8.93;6.23;;;;;;;;;;4968220;28;21266;-74
2021/11/23 17:04:59;;;;;;;10.30;5.77;;;;;;;;;;4970621;28;20958;-75
2021/11/23 17:08:03;;;;;;;8.17;5.33;;;;;;;;;;4970447;28;20598;-75
2021/11/23 17:11:08;;;;;;;9.80;5.93;;;;;;;;;;4970058;28;20633;-75
2021/11/23 17:14:17;;;;;;;9.87;5.70;;;;;;;;;;4961760;28;20595;-75
2021/11/23 17:17:22;;;;;;;12.20;6.60;;;;;;;;;;4961704;28;20978;-75
2021/11/23 17:20:26;;;;;;;12.93;7.80;;;;;;;;;;4969948;28;20983;-75
2021/11/23 17:23:30;;;;;;;13.27;7.80;;;;;;;;;;4969532;28;20645;-74
2021/11/23 17:26:37;;;;;;;11.13;7.13;;;;;;;;;;4963339;28;20606;-75
2021/11/23 17:29:42;;;;;;;11.50;7.30;;;;;;;;;;4951646;29;20574;-74
2021/11/23 17:32:46;;;;;;;10.73;6.57;;;;;;;;;;4951575;29;20645;-74
2021/11/23 17:35:50;;;;;;;11.10;7.23;;;;;;;;;;4953404;28;20598;-74
2021/11/23 17:38:54;;;;;;;10.13;6.77;;;;;;;;;;4969859;28;20605;-74
2021/11/23 17:42:02;;;;;;;9.23;6.33;;;;;;;;;;4961248;28;20665;-74
2021/11/23 17:45:08;;;;;;;10.17;5.93;;;;;;;;;;4965050;28;20638;-74
2021/11/23 17:48:14;;;;;;;8.47;5.83;;;;;;;;;;4959105;28;20577;-74
2021/11/23 17:51:19;;;;;;;7.27;5.70;;;;;;;;;;4968320;28;20625;-74
2021/11/23 17:54:23;;;;;;;8.80;5.87;;;;;;;;;;4951457;29;20572;-74
2021/11/23 17:57:29;;;;;;;12.23;6.23;;;;;;;;;;4962897;28;20602;-74
2021/11/23 18:00:36;;;;;;;11.87;6.53;;;;;;;;;;4969853;28;20628;-74
2021/11/23 18:03:41;;;;;;;11.73;5.90;;;;;;;;;;4960209;28;20641;-74
2021/11/23 18:06:46;;;;;;;9.50;6.33;;;;;;;;;;4970829;28;20569;-73
2021/11/23 18:09:50;;;;;;;8.40;5.87;;;;;;;;;;4970286;28;20598;-73
2021/11/23 18:13:02;;;;;;;8.30;6.27;;;;;;;;;;4965786;28;21228;-73
2021/11/23 18:16:08;;;;;;;9.40;5.87;;;;;;;;;;4950565;29;21090;-74
2021/11/23 18:19:12;;;;;;;9.17;6.07;;;;;;;;;;4939890;28;20599;-74
2021/11/23 18:22:16;;;;;;;9.57;6.13;;;;;;;;;;4958936;28;20723;-73
2021/11/23 18:25:22;;;;;;;8.90;6.00;;;;;;;;;;4952042;28;21212;-74
2021/11/23 18:28:26;;;;;;;8.50;5.10;;;;;;;;;;4954189;29;20603;-74